sensor_id;sensor_type;location;lat;lon;timestamp;P1;durP1;ratioP1;P2;durP2;ratioP2
69046;SDS011;57261;47.504;19.084;2022-08-01T00:01:27;7.67;;;3.83;;
69046;SDS011;57261;47.504;19.084;2022-08-01T00:04:27;7.03;;;3.90;;
69046;SDS011;57261;47.504;19.084;2022-08-01T00:07:28;7.00;;;4.07;;
69046;SDS011;57261;47.504;19.084;2022-08-01T00:10:28;8.63;;;3.80;;
69046;SDS011;57261;47.504;19.084;2022-08-01T00:13:29;7.95;;;3.75;;
69046;SDS011;57261;47.504;19.084;2022-08-01T00:16:29;8.00;;;4.00;;
69046;SDS011;57261;47.504;19.084;2022-08-01T00:19:30;9.17;;;4.67;;
69046;SDS011;57261;47.504;19.084;2022-08-01T00:22:31;8.15;;;4.20;;
69046;SDS011;57261;47.504;19.084;2022-08-01T00:25:32;9.23;;;4.65;;
69046;SDS011;57261;47.504;19.084;2022-08-01T00:28:33;8.37;;;4.20;;
69046;SDS011;57261;47.504;19.084;2022-08-01T00:31:33;7.87;;;4.33;;
69046;SDS011;57261;47.504;19.084;2022-08-01T00:34:34;7.83;;;4.30;;
69046;SDS011;57261;47.504;19.084;2022-08-01T00:37:34;7.87;;;4.00;;
69046;SDS011;57261;47.504;19.084;2022-08-01T00:40:34;7.43;;;3.80;;
69046;SDS011;57261;47.504;19.084;2022-08-01T00:43:35;8.40;;;4.43;;
69046;SDS011;57261;47.504;19.084;2022-08-01T00:46:35;7.90;;;4.33;;
69046;SDS011;57261;47.504;19.084;2022-08-01T00:49:36;8.37;;;4.30;;
69046;SDS011;57261;47.504;19.084;2022-08-01T00:52:36;8.68;;;4.50;;
69046;SDS011;57261;47.504;19.084;2022-08-01T00:55:39;8.57;;;4.27;;
69046;SDS011;57261;47.504;19.084;2022-08-01T00:58:40;8.90;;;4.90;;
69046;SDS011;57261;47.504;19.084;2022-08-01T01:01:40;8.77;;;4.13;;
69046;SDS011;57261;47.504;19.084;2022-08-01T01:04:42;9.02;;;5.05;;
69046;SDS011;57261;47.504;19.084;2022-08-01T01:11:21;9.35;;;4.95;;
69046;SDS011;57261;47.504;19.084;2022-08-01T01:14:33;8.80;;;4.80;;
69046;SDS011;57261;47.504;19.084;2022-08-01T01:17:40;8.40;;;4.68;;
69046;SDS011;57261;47.504;19.084;2022-08-01T01:20:44;7.85;;;4.43;;
69046;SDS011;57261;47.504;19.084;2022-08-01T01:24:04;7.87;;;4.40;;
69046;SDS011;57261;47.504;19.084;2022-08-01T01:27:33;7.95;;;4.10;;
69046;SDS011;57261;47.504;19.084;2022-08-01T01:30:43;7.50;;;4.10;;
69046;SDS011;57261;47.504;19.084;2022-08-01T01:33:46;10.05;;;4.88;;
69046;SDS011;57261;47.504;19.084;2022-08-01T01:36:49;9.70;;;5.43;;
69046;SDS011;57261;47.504;19.084;2022-08-01T01:39:54;8.07;;;4.60;;
69046;SDS011;57261;47.504;19.084;2022-08-01T01:42:55;9.98;;;4.82;;
69046;SDS011;57261;47.504;19.084;2022-08-01T01:45:56;8.35;;;4.55;;
69046;SDS011;57261;47.504;19.084;2022-08-01T01:48:57;9.53;;;5.23;;
69046;SDS011;57261;47.504;19.084;2022-08-01T01:51:59;9.13;;;5.70;;
69046;SDS011;57261;47.504;19.084;2022-08-01T01:55:04;6.78;;;3.92;;
69046;SDS011;57261;47.504;19.084;2022-08-01T01:58:08;8.93;;;4.47;;
69046;SDS011;57261;47.504;19.084;2022-08-01T02:01:11;7.83;;;4.27;;
69046;SDS011;57261;47.504;19.084;2022-08-01T02:04:13;8.03;;;4.33;;
69046;SDS011;57261;47.504;19.084;2022-08-01T02:07:16;8.52;;;3.95;;
69046;SDS011;57261;47.504;19.084;2022-08-01T02:10:19;7.30;;;3.90;;
69046;SDS011;57261;47.504;19.084;2022-08-01T02:13:19;8.60;;;3.90;;
69046;SDS011;57261;47.504;19.084;2022-08-01T02:16:23;6.95;;;3.83;;
69046;SDS011;57261;47.504;19.084;2022-08-01T02:19:26;7.18;;;3.85;;
69046;SDS011;57261;47.504;19.084;2022-08-01T02:22:28;8.40;;;4.03;;
69046;SDS011;57261;47.504;19.084;2022-08-01T02:25:42;7.05;;;3.72;;
69046;SDS011;57261;47.504;19.084;2022-08-01T02:28:50;6.68;;;3.58;;
69046;SDS011;57261;47.504;19.084;2022-08-01T02:31:56;7.05;;;3.47;;
69046;SDS011;57261;47.504;19.084;2022-08-01T02:34:57;7.25;;;3.75;;
69046;SDS011;57261;47.504;19.084;2022-08-01T02:38:01;7.60;;;3.70;;
69046;SDS011;57261;47.504;19.084;2022-08-01T02:41:06;7.75;;;3.90;;
69046;SDS011;57261;47.504;19.084;2022-08-01T02:44:09;7.75;;;3.88;;
69046;SDS011;57261;47.504;19.084;2022-08-01T02:47:13;7.35;;;3.72;;
69046;SDS011;57261;47.504;19.084;2022-08-01T02:50:17;6.75;;;3.83;;
69046;SDS011;57261;47.504;19.084;2022-08-01T02:53:19;8.63;;;3.50;;
69046;SDS011;57261;47.504;19.084;2022-08-01T02:56:23;7.63;;;3.65;;
69046;SDS011;57261;47.504;19.084;2022-08-01T02:59:36;6.80;;;3.50;;
69046;SDS011;57261;47.504;19.084;2022-08-01T03:02:40;7.40;;;3.45;;
69046;SDS011;57261;47.504;19.084;2022-08-01T03:05:43;7.07;;;3.60;;
69046;SDS011;57261;47.504;19.084;2022-08-01T03:08:44;7.10;;;3.33;;
69046;SDS011;57261;47.504;19.084;2022-08-01T03:11:47;6.63;;;3.10;;
69046;SDS011;57261;47.504;19.084;2022-08-01T03:14:49;6.82;;;3.50;;
69046;SDS011;57261;47.504;19.084;2022-08-01T03:17:55;6.70;;;3.40;;
69046;SDS011;57261;47.504;19.084;2022-08-01T03:20:58;6.65;;;3.72;;
69046;SDS011;57261;47.504;19.084;2022-08-01T03:24:01;7.03;;;3.57;;
69046;SDS011;57261;47.504;19.084;2022-08-01T03:27:06;7.20;;;3.78;;
69046;SDS011;57261;47.504;19.084;2022-08-01T03:30:08;7.43;;;3.90;;
69046;SDS011;57261;47.504;19.084;2022-08-01T03:33:10;8.10;;;3.70;;
69046;SDS011;57261;47.504;19.084;2022-08-01T03:36:11;7.63;;;4.00;;
69046;SDS011;57261;47.504;19.084;2022-08-01T03:39:14;8.82;;;4.20;;
69046;SDS011;57261;47.504;19.084;2022-08-01T03:42:18;8.20;;;4.43;;
69046;SDS011;57261;47.504;19.084;2022-08-01T03:45:22;10.20;;;4.60;;
69046;SDS011;57261;47.504;19.084;2022-08-01T03:48:27;8.40;;;4.53;;
69046;SDS011;57261;47.504;19.084;2022-08-01T03:51:32;7.97;;;4.40;;
69046;SDS011;57261;47.504;19.084;2022-08-01T03:54:34;7.22;;;3.92;;
69046;SDS011;57261;47.504;19.084;2022-08-01T03:57:37;8.50;;;4.15;;
69046;SDS011;57261;47.504;19.084;2022-08-01T04:00:39;8.00;;;4.17;;
69046;SDS011;57261;47.504;19.084;2022-08-01T04:03:41;8.18;;;4.18;;
69046;SDS011;57261;47.504;19.084;2022-08-01T04:06:42;7.32;;;4.15;;
69046;SDS011;57261;47.504;19.084;2022-08-01T04:09:46;7.65;;;4.50;;
69046;SDS011;57261;47.504;19.084;2022-08-01T04:12:46;8.33;;;4.50;;
69046;SDS011;57261;47.504;19.084;2022-08-01T04:15:47;8.40;;;5.33;;
69046;SDS011;57261;47.504;19.084;2022-08-01T04:18:47;9.63;;;5.10;;
69046;SDS011;57261;47.504;19.084;2022-08-01T04:21:48;8.75;;;4.63;;
69046;SDS011;57261;47.504;19.084;2022-08-01T04:24:49;7.70;;;4.70;;
69046;SDS011;57261;47.504;19.084;2022-08-01T04:27:53;9.88;;;6.07;;
69046;SDS011;57261;47.504;19.084;2022-08-01T04:30:55;10.23;;;6.60;;
69046;SDS011;57261;47.504;19.084;2022-08-01T04:33:57;8.60;;;5.80;;
69046;SDS011;57261;47.504;19.084;2022-08-01T04:37:00;9.77;;;5.68;;
69046;SDS011;57261;47.504;19.084;2022-08-01T04:40:05;8.48;;;5.43;;
69046;SDS011;57261;47.504;19.084;2022-08-01T04:43:08;8.48;;;5.30;;
69046;SDS011;57261;47.504;19.084;2022-08-01T04:46:10;8.20;;;4.97;;
69046;SDS011;57261;47.504;19.084;2022-08-01T04:49:13;9.30;;;5.10;;
69046;SDS011;57261;47.504;19.084;2022-08-01T04:52:16;7.30;;;4.28;;
69046;SDS011;57261;47.504;19.084;2022-08-01T04:55:17;10.30;;;5.57;;
69046;SDS011;57261;47.504;19.084;2022-08-01T04:58:18;12.30;;;5.40;;
69046;SDS011;57261;47.504;19.084;2022-08-01T05:01:19;9.02;;;5.10;;
69046;SDS011;57261;47.504;19.084;2022-08-01T05:04:19;7.80;;;4.67;;
69046;SDS011;57261;47.504;19.084;2022-08-01T05:07:19;8.27;;;5.20;;
69046;SDS011;57261;47.504;19.084;2022-08-01T05:10:20;9.57;;;5.30;;
69046;SDS011;57261;47.504;19.084;2022-08-01T05:13:20;17.43;;;11.40;;
69046;SDS011;57261;47.504;19.084;2022-08-01T05:16:20;12.07;;;7.18;;
69046;SDS011;57261;47.504;19.084;2022-08-01T05:19:21;11.37;;;5.80;;
69046;SDS011;57261;47.504;19.084;2022-08-01T05:22:21;8.67;;;5.30;;
69046;SDS011;57261;47.504;19.084;2022-08-01T05:25:22;8.63;;;4.90;;
69046;SDS011;57261;47.504;19.084;2022-08-01T05:28:24;8.27;;;4.82;;
69046;SDS011;57261;47.504;19.084;2022-08-01T05:31:24;9.03;;;5.03;;
69046;SDS011;57261;47.504;19.084;2022-08-01T05:34:28;10.20;;;6.30;;
69046;SDS011;57261;47.504;19.084;2022-08-01T05:37:29;12.73;;;7.20;;
69046;SDS011;57261;47.504;19.084;2022-08-01T05:40:29;11.03;;;6.80;;
69046;SDS011;57261;47.504;19.084;2022-08-01T05:43:29;9.50;;;6.43;;
69046;SDS011;57261;47.504;19.084;2022-08-01T05:46:30;9.88;;;6.47;;
69046;SDS011;57261;47.504;19.084;2022-08-01T05:49:31;9.83;;;6.10;;
69046;SDS011;57261;47.504;19.084;2022-08-01T05:52:31;11.00;;;5.90;;
69046;SDS011;57261;47.504;19.084;2022-08-01T05:55:32;9.90;;;5.85;;
69046;SDS011;57261;47.504;19.084;2022-08-01T05:58:32;9.77;;;5.77;;
69046;SDS011;57261;47.504;19.084;2022-08-01T06:01:32;8.50;;;5.30;;
69046;SDS011;57261;47.504;19.084;2022-08-01T06:04:34;8.27;;;5.68;;
69046;SDS011;57261;47.504;19.084;2022-08-01T06:07:35;9.13;;;6.00;;
69046;SDS011;57261;47.504;19.084;2022-08-01T06:10:36;9.60;;;5.78;;
69046;SDS011;57261;47.504;19.084;2022-08-01T06:13:36;9.10;;;5.80;;
69046;SDS011;57261;47.504;19.084;2022-08-01T06:16:37;10.03;;;5.40;;
69046;SDS011;57261;47.504;19.084;2022-08-01T06:19:37;8.97;;;5.30;;
69046;SDS011;57261;47.504;19.084;2022-08-01T06:22:38;11.93;;;5.60;;
69046;SDS011;57261;47.504;19.084;2022-08-01T06:25:38;9.23;;;5.53;;
69046;SDS011;57261;47.504;19.084;2022-08-01T06:28:39;9.07;;;5.50;;
69046;SDS011;57261;47.504;19.084;2022-08-01T06:31:39;10.10;;;5.77;;
69046;SDS011;57261;47.504;19.084;2022-08-01T06:34:40;9.73;;;5.97;;
69046;SDS011;57261;47.504;19.084;2022-08-01T06:37:40;10.17;;;5.60;;
69046;SDS011;57261;47.504;19.084;2022-08-01T06:40:41;8.97;;;4.90;;
69046;SDS011;57261;47.504;19.084;2022-08-01T06:43:41;9.33;;;5.27;;
69046;SDS011;57261;47.504;19.084;2022-08-01T06:46:41;9.83;;;5.37;;
69046;SDS011;57261;47.504;19.084;2022-08-01T06:49:42;8.53;;;5.20;;
69046;SDS011;57261;47.504;19.084;2022-08-01T06:52:42;11.07;;;5.57;;
69046;SDS011;57261;47.504;19.084;2022-08-01T06:55:43;9.30;;;5.07;;
69046;SDS011;57261;47.504;19.084;2022-08-01T06:58:43;9.00;;;5.27;;
69046;SDS011;57261;47.504;19.084;2022-08-01T07:01:44;9.40;;;5.17;;
69046;SDS011;57261;47.504;19.084;2022-08-01T07:04:44;10.20;;;5.00;;
69046;SDS011;57261;47.504;19.084;2022-08-01T07:07:45;9.07;;;4.83;;
69046;SDS011;57261;47.504;19.084;2022-08-01T07:10:45;8.23;;;4.70;;
69046;SDS011;57261;47.504;19.084;2022-08-01T07:13:46;9.13;;;5.30;;
69046;SDS011;57261;47.504;19.084;2022-08-01T07:16:46;9.93;;;5.00;;
69046;SDS011;57261;47.504;19.084;2022-08-01T07:19:47;12.13;;;4.80;;
69046;SDS011;57261;47.504;19.084;2022-08-01T07:22:48;16.48;;;6.13;;
69046;SDS011;57261;47.504;19.084;2022-08-01T07:25:48;13.47;;;5.90;;
69046;SDS011;57261;47.504;19.084;2022-08-01T07:28:50;12.20;;;5.60;;
69046;SDS011;57261;47.504;19.084;2022-08-01T07:31:54;14.00;;;5.57;;
69046;SDS011;57261;47.504;19.084;2022-08-01T07:34:56;17.00;;;5.68;;
69046;SDS011;57261;47.504;19.084;2022-08-01T07:37:56;16.35;;;5.70;;
69046;SDS011;57261;47.504;19.084;2022-08-01T07:40:57;19.30;;;5.63;;
69046;SDS011;57261;47.504;19.084;2022-08-01T07:43:58;17.47;;;6.30;;
69046;SDS011;57261;47.504;19.084;2022-08-01T07:46:58;20.83;;;6.95;;
69046;SDS011;57261;47.504;19.084;2022-08-01T07:49:59;22.03;;;6.53;;
69046;SDS011;57261;47.504;19.084;2022-08-01T07:53:00;16.02;;;5.75;;
69046;SDS011;57261;47.504;19.084;2022-08-01T07:56:00;16.40;;;6.27;;
69046;SDS011;57261;47.504;19.084;2022-08-01T07:59:05;11.68;;;5.65;;
69046;SDS011;57261;47.504;19.084;2022-08-01T08:02:06;11.63;;;5.50;;
69046;SDS011;57261;47.504;19.084;2022-08-01T08:05:06;16.27;;;5.20;;
69046;SDS011;57261;47.504;19.084;2022-08-01T08:08:08;14.40;;;5.00;;
69046;SDS011;57261;47.504;19.084;2022-08-01T08:11:10;10.83;;;5.20;;
69046;SDS011;57261;47.504;19.084;2022-08-01T08:14:10;12.23;;;4.80;;
69046;SDS011;57261;47.504;19.084;2022-08-01T08:17:11;15.32;;;4.97;;
69046;SDS011;57261;47.504;19.084;2022-08-01T08:20:11;11.73;;;5.60;;
69046;SDS011;57261;47.504;19.084;2022-08-01T08:23:12;9.00;;;4.80;;
69046;SDS011;57261;47.504;19.084;2022-08-01T08:26:33;15.35;;;5.03;;
69046;SDS011;57261;47.504;19.084;2022-08-01T08:29:33;12.47;;;5.30;;
69046;SDS011;57261;47.504;19.084;2022-08-01T08:32:34;12.43;;;4.70;;
69046;SDS011;57261;47.504;19.084;2022-08-01T08:35:35;11.33;;;4.30;;
69046;SDS011;57261;47.504;19.084;2022-08-01T08:38:38;9.70;;;4.50;;
69046;SDS011;57261;47.504;19.084;2022-08-01T08:41:39;11.63;;;5.63;;
69046;SDS011;57261;47.504;19.084;2022-08-01T08:44:42;14.23;;;5.60;;
69046;SDS011;57261;47.504;19.084;2022-08-01T08:47:43;10.50;;;4.73;;
69046;SDS011;57261;47.504;19.084;2022-08-01T08:50:43;12.48;;;4.95;;
69046;SDS011;57261;47.504;19.084;2022-08-01T08:53:47;13.18;;;4.90;;
69046;SDS011;57261;47.504;19.084;2022-08-01T08:56:48;10.80;;;5.13;;
69046;SDS011;57261;47.504;19.084;2022-08-01T08:59:50;12.33;;;5.10;;
69046;SDS011;57261;47.504;19.084;2022-08-01T09:02:52;11.77;;;4.60;;
69046;SDS011;57261;47.504;19.084;2022-08-01T09:05:55;15.75;;;5.13;;
69046;SDS011;57261;47.504;19.084;2022-08-01T09:08:56;20.40;;;5.23;;
69046;SDS011;57261;47.504;19.084;2022-08-01T09:11:57;13.80;;;4.60;;
69046;SDS011;57261;47.504;19.084;2022-08-01T09:14:57;14.30;;;4.77;;
69046;SDS011;57261;47.504;19.084;2022-08-01T09:17:58;13.77;;;5.17;;
69046;SDS011;57261;47.504;19.084;2022-08-01T09:24:15;14.68;;;4.88;;
69046;SDS011;57261;47.504;19.084;2022-08-01T09:30:19;12.13;;;4.82;;
69046;SDS011;57261;47.504;19.084;2022-08-01T09:33:19;10.57;;;4.40;;
69046;SDS011;57261;47.504;19.084;2022-08-01T09:36:21;11.73;;;5.13;;
69046;SDS011;57261;47.504;19.084;2022-08-01T09:39:25;11.25;;;4.80;;
69046;SDS011;57261;47.504;19.084;2022-08-01T09:42:27;13.18;;;5.10;;
69046;SDS011;57261;47.504;19.084;2022-08-01T09:45:32;10.73;;;4.33;;
69046;SDS011;57261;47.504;19.084;2022-08-01T09:48:33;11.13;;;4.90;;
69046;SDS011;57261;47.504;19.084;2022-08-01T09:51:38;13.68;;;7.07;;
69046;SDS011;57261;47.504;19.084;2022-08-01T09:54:39;13.85;;;7.20;;
69046;SDS011;57261;47.504;19.084;2022-08-01T09:57:41;13.65;;;7.50;;
69046;SDS011;57261;47.504;19.084;2022-08-01T10:00:58;16.73;;;9.90;;
69046;SDS011;57261;47.504;19.084;2022-08-01T10:04:07;16.92;;;9.35;;
69046;SDS011;57261;47.504;19.084;2022-08-01T10:07:11;14.30;;;8.15;;
69046;SDS011;57261;47.504;19.084;2022-08-01T10:10:12;13.73;;;7.27;;
69046;SDS011;57261;47.504;19.084;2022-08-01T10:13:14;12.95;;;7.30;;
69046;SDS011;57261;47.504;19.084;2022-08-01T10:16:14;13.30;;;7.43;;
69046;SDS011;57261;47.504;19.084;2022-08-01T10:19:16;13.27;;;7.45;;
69046;SDS011;57261;47.504;19.084;2022-08-01T10:22:19;11.15;;;6.53;;
69046;SDS011;57261;47.504;19.084;2022-08-01T10:25:23;14.25;;;7.10;;
69046;SDS011;57261;47.504;19.084;2022-08-01T10:28:28;12.87;;;6.27;;
69046;SDS011;57261;47.504;19.084;2022-08-01T10:31:30;14.27;;;6.53;;
69046;SDS011;57261;47.504;19.084;2022-08-01T10:34:33;9.75;;;5.82;;
69046;SDS011;57261;47.504;19.084;2022-08-01T10:37:34;11.43;;;5.85;;
69046;SDS011;57261;47.504;19.084;2022-08-01T10:40:35;13.13;;;6.00;;
69046;SDS011;57261;47.504;19.084;2022-08-01T10:43:37;9.20;;;5.60;;
69046;SDS011;57261;47.504;19.084;2022-08-01T10:46:39;11.95;;;5.85;;
69046;SDS011;57261;47.504;19.084;2022-08-01T10:49:48;10.18;;;5.95;;
69046;SDS011;57261;47.504;19.084;2022-08-01T10:53:07;10.13;;;5.40;;
69046;SDS011;57261;47.504;19.084;2022-08-01T10:56:15;10.27;;;5.97;;
69046;SDS011;57261;47.504;19.084;2022-08-01T10:59:21;16.87;;;5.93;;
69046;SDS011;57261;47.504;19.084;2022-08-01T11:02:28;10.73;;;6.10;;
69046;SDS011;57261;47.504;19.084;2022-08-01T11:05:32;12.48;;;6.20;;
69046;SDS011;57261;47.504;19.084;2022-08-01T11:08:35;11.25;;;6.47;;
69046;SDS011;57261;47.504;19.084;2022-08-01T11:24:56;12.68;;;7.00;;
69046;SDS011;57261;47.504;19.084;2022-08-01T11:34:16;13.13;;;8.00;;
69046;SDS011;57261;47.504;19.084;2022-08-01T11:37:23;13.97;;;7.97;;
69046;SDS011;57261;47.504;19.084;2022-08-01T11:40:27;12.60;;;7.30;;
69046;SDS011;57261;47.504;19.084;2022-08-01T11:43:28;12.90;;;8.50;;
69046;SDS011;57261;47.504;19.084;2022-08-01T11:49:49;12.87;;;7.20;;
69046;SDS011;57261;47.504;19.084;2022-08-01T11:53:05;10.63;;;6.18;;
69046;SDS011;57261;47.504;19.084;2022-08-01T11:56:07;8.98;;;5.75;;
69046;SDS011;57261;47.504;19.084;2022-08-01T11:59:07;9.57;;;5.37;;
69046;SDS011;57261;47.504;19.084;2022-08-01T12:02:25;8.55;;;5.38;;
69046;SDS011;57261;47.504;19.084;2022-08-01T12:05:28;10.00;;;5.87;;
69046;SDS011;57261;47.504;19.084;2022-08-01T12:08:30;11.50;;;6.30;;
69046;SDS011;57261;47.504;19.084;2022-08-01T12:11:33;10.68;;;5.40;;
69046;SDS011;57261;47.504;19.084;2022-08-01T12:14:33;12.37;;;7.20;;
69046;SDS011;57261;47.504;19.084;2022-08-01T12:17:38;10.45;;;6.00;;
69046;SDS011;57261;47.504;19.084;2022-08-01T12:20:42;8.53;;;5.00;;
69046;SDS011;57261;47.504;19.084;2022-08-01T12:23:44;7.95;;;5.10;;
69046;SDS011;57261;47.504;19.084;2022-08-01T12:26:44;10.10;;;5.87;;
69046;SDS011;57261;47.504;19.084;2022-08-01T12:29:44;9.20;;;5.05;;
69046;SDS011;57261;47.504;19.084;2022-08-01T12:32:48;10.13;;;6.17;;
69046;SDS011;57261;47.504;19.084;2022-08-01T12:35:49;9.35;;;6.57;;
69046;SDS011;57261;47.504;19.084;2022-08-01T12:38:53;10.07;;;6.13;;
69046;SDS011;57261;47.504;19.084;2022-08-01T12:41:53;8.43;;;5.90;;
69046;SDS011;57261;47.504;19.084;2022-08-01T12:44:54;8.43;;;5.10;;
69046;SDS011;57261;47.504;19.084;2022-08-01T12:47:55;8.63;;;5.37;;
69046;SDS011;57261;47.504;19.084;2022-08-01T12:50:58;8.93;;;5.90;;
69046;SDS011;57261;47.504;19.084;2022-08-01T12:54:01;8.18;;;5.60;;
69046;SDS011;57261;47.504;19.084;2022-08-01T12:57:01;7.83;;;5.40;;
69046;SDS011;57261;47.504;19.084;2022-08-01T13:03:11;7.65;;;4.97;;
69046;SDS011;57261;47.504;19.084;2022-08-01T13:06:19;8.95;;;5.65;;
69046;SDS011;57261;47.504;19.084;2022-08-01T13:09:20;9.20;;;5.33;;
69046;SDS011;57261;47.504;19.084;2022-08-01T13:12:20;8.77;;;5.87;;
69046;SDS011;57261;47.504;19.084;2022-08-01T13:15:22;9.65;;;7.80;;
69046;SDS011;57261;47.504;19.084;2022-08-01T13:18:29;9.17;;;6.23;;
69046;SDS011;57261;47.504;19.084;2022-08-01T13:21:31;10.88;;;5.20;;
69046;SDS011;57261;47.504;19.084;2022-08-01T13:24:31;12.53;;;5.27;;
69046;SDS011;57261;47.504;19.084;2022-08-01T13:27:32;9.03;;;4.87;;
69046;SDS011;57261;47.504;19.084;2022-08-01T13:30:32;9.80;;;6.00;;
69046;SDS011;57261;47.504;19.084;2022-08-01T13:33:46;9.70;;;6.27;;
69046;SDS011;57261;47.504;19.084;2022-08-01T13:36:47;9.65;;;5.78;;
69046;SDS011;57261;47.504;19.084;2022-08-01T13:39:48;9.25;;;5.85;;
69046;SDS011;57261;47.504;19.084;2022-08-01T13:42:49;9.77;;;5.97;;
69046;SDS011;57261;47.504;19.084;2022-08-01T13:45:49;9.40;;;6.20;;
69046;SDS011;57261;47.504;19.084;2022-08-01T13:48:51;10.07;;;7.13;;
69046;SDS011;57261;47.504;19.084;2022-08-01T13:51:51;10.10;;;6.80;;
69046;SDS011;57261;47.504;19.084;2022-08-01T13:54:51;9.80;;;6.80;;
69046;SDS011;57261;47.504;19.084;2022-08-01T13:57:52;9.43;;;6.43;;
69046;SDS011;57261;47.504;19.084;2022-08-01T14:00:52;8.30;;;5.70;;
69046;SDS011;57261;47.504;19.084;2022-08-01T14:03:52;9.85;;;5.00;;
69046;SDS011;57261;47.504;19.084;2022-08-01T14:06:53;8.30;;;4.83;;
69046;SDS011;57261;47.504;19.084;2022-08-01T14:09:53;8.30;;;4.50;;
69046;SDS011;57261;47.504;19.084;2022-08-01T14:12:56;8.30;;;4.83;;
69046;SDS011;57261;47.504;19.084;2022-08-01T14:15:57;12.75;;;6.43;;
69046;SDS011;57261;47.504;19.084;2022-08-01T14:18:58;19.17;;;6.97;;
69046;SDS011;57261;47.504;19.084;2022-08-01T14:21:59;16.73;;;6.97;;
69046;SDS011;57261;47.504;19.084;2022-08-01T14:24:59;19.40;;;8.30;;
69046;SDS011;57261;47.504;19.084;2022-08-01T14:27:59;20.33;;;11.40;;
69046;SDS011;57261;47.504;19.084;2022-08-01T14:31:00;16.97;;;10.50;;
69046;SDS011;57261;47.504;19.084;2022-08-01T14:34:00;14.03;;;8.00;;
69046;SDS011;57261;47.504;19.084;2022-08-01T14:37:01;14.00;;;7.13;;
69046;SDS011;57261;47.504;19.084;2022-08-01T14:40:02;12.80;;;6.43;;
69046;SDS011;57261;47.504;19.084;2022-08-01T14:43:05;11.02;;;6.20;;
69046;SDS011;57261;47.504;19.084;2022-08-01T14:46:06;11.07;;;6.72;;
69046;SDS011;57261;47.504;19.084;2022-08-01T14:49:09;10.30;;;6.60;;
69046;SDS011;57261;47.504;19.084;2022-08-01T14:52:10;12.20;;;8.27;;
69046;SDS011;57261;47.504;19.084;2022-08-01T14:55:11;40.60;;;25.07;;
69046;SDS011;57261;47.504;19.084;2022-08-01T14:58:12;57.67;;;34.38;;
69046;SDS011;57261;47.504;19.084;2022-08-01T15:01:14;87.38;;;47.90;;
69046;SDS011;57261;47.504;19.084;2022-08-01T15:04:15;75.67;;;42.00;;
69046;SDS011;57261;47.504;19.084;2022-08-01T15:07:17;82.20;;;44.42;;
69046;SDS011;57261;47.504;19.084;2022-08-01T15:10:18;78.25;;;38.90;;
69046;SDS011;57261;47.504;19.084;2022-08-01T15:13:18;81.50;;;41.10;;
69046;SDS011;57261;47.504;19.084;2022-08-01T15:16:19;58.40;;;29.77;;
69046;SDS011;57261;47.504;19.084;2022-08-01T15:19:19;69.03;;;33.33;;
69046;SDS011;57261;47.504;19.084;2022-08-01T15:22:20;90.00;;;43.67;;
69046;SDS011;57261;47.504;19.084;2022-08-01T15:25:22;54.38;;;28.15;;
69046;SDS011;57261;47.504;19.084;2022-08-01T15:28:22;46.63;;;25.03;;
69046;SDS011;57261;47.504;19.084;2022-08-01T15:31:23;65.63;;;33.13;;
69046;SDS011;57261;47.504;19.084;2022-08-01T15:34:24;38.78;;;22.15;;
69046;SDS011;57261;47.504;19.084;2022-08-01T15:37:25;40.92;;;23.67;;
69046;SDS011;57261;47.504;19.084;2022-08-01T15:40:25;42.10;;;23.70;;
69046;SDS011;57261;47.504;19.084;2022-08-01T15:43:26;62.70;;;34.03;;
69046;SDS011;57261;47.504;19.084;2022-08-01T15:46:27;42.67;;;25.03;;
69046;SDS011;57261;47.504;19.084;2022-08-01T15:49:27;47.87;;;24.70;;
69046;SDS011;57261;47.504;19.084;2022-08-01T15:52:28;43.97;;;23.98;;
69046;SDS011;57261;47.504;19.084;2022-08-01T15:55:28;36.30;;;18.63;;
69046;SDS011;57261;47.504;19.084;2022-08-01T15:58:29;34.63;;;19.70;;
69046;SDS011;57261;47.504;19.084;2022-08-01T16:01:29;45.40;;;26.00;;
69046;SDS011;57261;47.504;19.084;2022-08-01T16:04:30;48.30;;;26.87;;
69046;SDS011;57261;47.504;19.084;2022-08-01T16:07:30;37.97;;;22.23;;
69046;SDS011;57261;47.504;19.084;2022-08-01T16:10:31;34.20;;;17.80;;
69046;SDS011;57261;47.504;19.084;2022-08-01T16:13:31;40.50;;;20.90;;
69046;SDS011;57261;47.504;19.084;2022-08-01T16:16:32;43.38;;;22.15;;
69046;SDS011;57261;47.504;19.084;2022-08-01T16:19:32;39.67;;;20.20;;
69046;SDS011;57261;47.504;19.084;2022-08-01T16:22:42;34.58;;;16.17;;
69046;SDS011;57261;47.504;19.084;2022-08-01T16:25:43;37.17;;;20.27;;
69046;SDS011;57261;47.504;19.084;2022-08-01T16:28:44;31.10;;;18.08;;
69046;SDS011;57261;47.504;19.084;2022-08-01T16:31:47;28.83;;;14.67;;
69046;SDS011;57261;47.504;19.084;2022-08-01T16:34:47;28.13;;;16.98;;
69046;SDS011;57261;47.504;19.084;2022-08-01T16:37:48;29.40;;;16.50;;
69046;SDS011;57261;47.504;19.084;2022-08-01T16:40:51;28.53;;;16.63;;
69046;SDS011;57261;47.504;19.084;2022-08-01T16:43:54;31.05;;;16.20;;
69046;SDS011;57261;47.504;19.084;2022-08-01T16:46:55;30.65;;;16.30;;
69046;SDS011;57261;47.504;19.084;2022-08-01T16:49:55;23.30;;;14.10;;
69046;SDS011;57261;47.504;19.084;2022-08-01T16:52:56;31.20;;;17.03;;
69046;SDS011;57261;47.504;19.084;2022-08-01T16:55:56;24.70;;;13.23;;
69046;SDS011;57261;47.504;19.084;2022-08-01T16:58:58;23.25;;;14.02;;
69046;SDS011;57261;47.504;19.084;2022-08-01T17:01:58;22.13;;;10.70;;
69046;SDS011;57261;47.504;19.084;2022-08-01T17:04:59;22.98;;;11.00;;
69046;SDS011;57261;47.504;19.084;2022-08-01T17:07:59;20.43;;;11.80;;
69046;SDS011;57261;47.504;19.084;2022-08-01T17:10:59;23.73;;;14.83;;
69046;SDS011;57261;47.504;19.084;2022-08-01T17:14:00;19.30;;;11.97;;
69046;SDS011;57261;47.504;19.084;2022-08-01T17:17:00;24.35;;;13.00;;
69046;SDS011;57261;47.504;19.084;2022-08-01T17:20:01;23.57;;;14.63;;
69046;SDS011;57261;47.504;19.084;2022-08-01T17:23:01;21.97;;;12.47;;
69046;SDS011;57261;47.504;19.084;2022-08-01T17:26:02;20.77;;;11.93;;
69046;SDS011;57261;47.504;19.084;2022-08-01T17:29:03;17.83;;;11.23;;
69046;SDS011;57261;47.504;19.084;2022-08-01T17:32:03;20.10;;;11.73;;
69046;SDS011;57261;47.504;19.084;2022-08-01T17:35:04;21.40;;;11.95;;
69046;SDS011;57261;47.504;19.084;2022-08-01T17:38:05;17.87;;;11.13;;
69046;SDS011;57261;47.504;19.084;2022-08-01T17:41:05;21.27;;;11.43;;
69046;SDS011;57261;47.504;19.084;2022-08-01T17:44:06;19.33;;;11.23;;
69046;SDS011;57261;47.504;19.084;2022-08-01T17:47:07;21.63;;;11.95;;
69046;SDS011;57261;47.504;19.084;2022-08-01T17:50:08;24.90;;;12.20;;
69046;SDS011;57261;47.504;19.084;2022-08-01T17:53:12;23.73;;;13.55;;
69046;SDS011;57261;47.504;19.084;2022-08-01T17:56:14;23.10;;;12.32;;
69046;SDS011;57261;47.504;19.084;2022-08-01T17:59:15;19.97;;;11.60;;
69046;SDS011;57261;47.504;19.084;2022-08-01T18:02:15;20.80;;;12.20;;
69046;SDS011;57261;47.504;19.084;2022-08-01T18:05:16;25.08;;;13.40;;
69046;SDS011;57261;47.504;19.084;2022-08-01T18:08:17;19.87;;;10.87;;
69046;SDS011;57261;47.504;19.084;2022-08-01T18:11:17;20.38;;;11.95;;
69046;SDS011;57261;47.504;19.084;2022-08-01T18:14:22;24.53;;;14.97;;
69046;SDS011;57261;47.504;19.084;2022-08-01T18:17:23;20.47;;;11.87;;
69046;SDS011;57261;47.504;19.084;2022-08-01T18:20:23;21.73;;;13.27;;
69046;SDS011;57261;47.504;19.084;2022-08-01T18:23:24;21.47;;;12.30;;
69046;SDS011;57261;47.504;19.084;2022-08-01T18:26:24;20.23;;;11.87;;